sensor_id;sensor_type;location;lat;lon;timestamp;P1;durP1;ratioP1;P2;durP2;ratioP2
9854;SDS011;4966;48.112;9.282;2022-10-16T00:00:15;3.00;;;1.10;;
9854;SDS011;4966;48.112;9.282;2022-10-16T00:02:41;1.23;;;0.68;;
9854;SDS011;4966;48.112;9.282;2022-10-16T00:05:06;7.35;;;0.90;;
9854;SDS011;4966;48.112;9.282;2022-10-16T00:07:31;3.55;;;0.88;;
9854;SDS011;4966;48.112;9.282;2022-10-16T00:09:57;3.70;;;0.90;;
9854;SDS011;4966;48.112;9.282;2022-10-16T00:12:22;5.45;;;0.90;;
9854;SDS011;4966;48.112;9.282;2022-10-16T00:14:47;5.60;;;1.13;;
9854;SDS011;4966;48.112;9.282;2022-10-16T00:17:13;4.80;;;0.73;;
9854;SDS011;4966;48.112;9.282;2022-10-16T00:19:38;3.95;;;1.05;;
9854;SDS011;4966;48.112;9.282;2022-10-16T00:22:04;3.40;;;1.15;;
9854;SDS011;4966;48.112;9.282;2022-10-16T00:24:29;5.43;;;1.05;;
9854;SDS011;4966;48.112;9.282;2022-10-16T00:26:54;5.07;;;0.95;;
9854;SDS011;4966;48.112;9.282;2022-10-16T00:29:20;6.15;;;1.00;;
9854;SDS011;4966;48.112;9.282;2022-10-16T00:31:45;1.70;;;1.02;;
9854;SDS011;4966;48.112;9.282;2022-10-16T00:34:10;2.78;;;1.02;;
9854;SDS011;4966;48.112;9.282;2022-10-16T00:36:36;7.85;;;1.10;;
9854;SDS011;4966;48.112;9.282;2022-10-16T00:39:01;1.83;;;0.90;;
9854;SDS011;4966;48.112;9.282;2022-10-16T00:41:28;4.18;;;0.88;;
9854;SDS011;4966;48.112;9.282;2022-10-16T00:43:57;3.78;;;0.80;;
9854;SDS011;4966;48.112;9.282;2022-10-16T00:46:38;2.97;;;0.90;;
9854;SDS011;4966;48.112;9.282;2022-10-16T00:49:09;2.05;;;0.80;;
9854;SDS011;4966;48.112;9.282;2022-10-16T00:51:41;7.18;;;0.88;;
9854;SDS011;4966;48.112;9.282;2022-10-16T00:54:09;1.73;;;0.90;;
9854;SDS011;4966;48.112;9.282;2022-10-16T00:56:38;1.75;;;1.00;;
9854;SDS011;4966;48.112;9.282;2022-10-16T00:59:04;4.60;;;1.13;;
9854;SDS011;4966;48.112;9.282;2022-10-16T01:01:36;5.45;;;1.00;;
9854;SDS011;4966;48.112;9.282;2022-10-16T01:04:02;2.55;;;1.08;;
9854;SDS011;4966;48.112;9.282;2022-10-16T01:08:58;3.55;;;1.05;;
9854;SDS011;4966;48.112;9.282;2022-10-16T01:11:44;3.97;;;1.00;;
9854;SDS011;4966;48.112;9.282;2022-10-16T01:14:24;6.88;;;1.20;;
9854;SDS011;4966;48.112;9.282;2022-10-16T01:17:11;6.75;;;1.42;;
9854;SDS011;4966;48.112;9.282;2022-10-16T01:19:46;2.25;;;0.85;;
9854;SDS011;4966;48.112;9.282;2022-10-16T01:22:26;7.35;;;0.80;;
9854;SDS011;4966;48.112;9.282;2022-10-16T01:25:05;5.07;;;0.82;;
9854;SDS011;4966;48.112;9.282;2022-10-16T01:27:36;6.80;;;1.00;;
9854;SDS011;4966;48.112;9.282;2022-10-16T01:30:17;2.80;;;1.10;;
9854;SDS011;4966;48.112;9.282;2022-10-16T01:32:50;4.20;;;1.35;;
9854;SDS011;4966;48.112;9.282;2022-10-16T01:35:35;4.30;;;1.30;;
9854;SDS011;4966;48.112;9.282;2022-10-16T01:38:05;5.05;;;1.50;;
9854;SDS011;4966;48.112;9.282;2022-10-16T01:40:39;3.92;;;1.35;;
9854;SDS011;4966;48.112;9.282;2022-10-16T01:43:22;4.90;;;1.00;;
9854;SDS011;4966;48.112;9.282;2022-10-16T01:45:52;3.13;;;1.00;;
9854;SDS011;4966;48.112;9.282;2022-10-16T01:48:18;6.75;;;1.00;;
9854;SDS011;4966;48.112;9.282;2022-10-16T01:50:49;2.97;;;1.20;;
9854;SDS011;4966;48.112;9.282;2022-10-16T01:53:20;2.58;;;1.00;;
9854;SDS011;4966;48.112;9.282;2022-10-16T01:55:47;8.30;;;1.10;;
9854;SDS011;4966;48.112;9.282;2022-10-16T01:58:15;6.45;;;1.63;;
9854;SDS011;4966;48.112;9.282;2022-10-16T02:00:42;4.78;;;1.02;;
9854;SDS011;4966;48.112;9.282;2022-10-16T02:03:11;4.43;;;0.80;;
9854;SDS011;4966;48.112;9.282;2022-10-16T02:05:46;2.45;;;1.08;;
9854;SDS011;4966;48.112;9.282;2022-10-16T02:08:12;5.63;;;1.15;;
9854;SDS011;4966;48.112;9.282;2022-10-16T02:10:38;4.40;;;1.40;;
9854;SDS011;4966;48.112;9.282;2022-10-16T02:13:06;2.75;;;1.83;;
9854;SDS011;4966;48.112;9.282;2022-10-16T02:15:35;11.23;;;1.55;;
9854;SDS011;4966;48.112;9.282;2022-10-16T02:18:01;2.55;;;1.25;;
9854;SDS011;4966;48.112;9.282;2022-10-16T02:20:28;10.35;;;1.23;;
9854;SDS011;4966;48.112;9.282;2022-10-16T02:23:01;4.90;;;1.35;;
9854;SDS011;4966;48.112;9.282;2022-10-16T02:25:32;1.60;;;0.93;;
9854;SDS011;4966;48.112;9.282;2022-10-16T02:33:28;6.22;;;1.30;;
9854;SDS011;4966;48.112;9.282;2022-10-16T02:35:56;4.75;;;1.55;;
9854;SDS011;4966;48.112;9.282;2022-10-16T02:38:22;7.88;;;1.58;;
9854;SDS011;4966;48.112;9.282;2022-10-16T02:40:49;4.18;;;1.23;;
9854;SDS011;4966;48.112;9.282;2022-10-16T02:43:14;5.60;;;1.38;;
9854;SDS011;4966;48.112;9.282;2022-10-16T02:45:41;2.58;;;1.40;;
9854;SDS011;4966;48.112;9.282;2022-10-16T02:48:06;3.92;;;1.40;;
9854;SDS011;4966;48.112;9.282;2022-10-16T02:50:32;9.25;;;2.25;;
9854;SDS011;4966;48.112;9.282;2022-10-16T02:52:58;2.78;;;1.02;;
9854;SDS011;4966;48.112;9.282;2022-10-16T02:55:23;5.55;;;1.08;;
9854;SDS011;4966;48.112;9.282;2022-10-16T02:57:49;2.63;;;1.10;;
9854;SDS011;4966;48.112;9.282;2022-10-16T03:00:15;4.20;;;1.25;;
9854;SDS011;4966;48.112;9.282;2022-10-16T03:02:41;2.17;;;1.23;;
9854;SDS011;4966;48.112;9.282;2022-10-16T03:05:07;6.97;;;1.30;;
9854;SDS011;4966;48.112;9.282;2022-10-16T03:07:33;2.60;;;1.10;;
9854;SDS011;4966;48.112;9.282;2022-10-16T03:09:58;6.82;;;2.35;;
9854;SDS011;4966;48.112;9.282;2022-10-16T03:12:27;2.30;;;1.02;;
9854;SDS011;4966;48.112;9.282;2022-10-16T03:14:53;3.63;;;1.00;;
9854;SDS011;4966;48.112;9.282;2022-10-16T03:17:19;4.70;;;1.10;;
9854;SDS011;4966;48.112;9.282;2022-10-16T03:19:44;2.28;;;0.90;;
9854;SDS011;4966;48.112;9.282;2022-10-16T03:22:09;4.25;;;1.20;;
9854;SDS011;4966;48.112;9.282;2022-10-16T03:24:35;5.03;;;0.90;;
9854;SDS011;4966;48.112;9.282;2022-10-16T03:27:00;4.07;;;0.88;;
9854;SDS011;4966;48.112;9.282;2022-10-16T03:29:26;2.03;;;1.00;;
9854;SDS011;4966;48.112;9.282;2022-10-16T03:31:52;5.95;;;1.25;;
9854;SDS011;4966;48.112;9.282;2022-10-16T03:34:18;3.40;;;1.23;;
9854;SDS011;4966;48.112;9.282;2022-10-16T03:36:43;6.60;;;1.67;;
9854;SDS011;4966;48.112;9.282;2022-10-16T03:39:08;4.85;;;1.20;;
9854;SDS011;4966;48.112;9.282;2022-10-16T03:41:34;4.40;;;1.15;;
9854;SDS011;4966;48.112;9.282;2022-10-16T03:43:59;5.50;;;1.27;;
9854;SDS011;4966;48.112;9.282;2022-10-16T03:46:24;3.25;;;1.25;;
9854;SDS011;4966;48.112;9.282;2022-10-16T03:48:50;1.92;;;1.08;;
9854;SDS011;4966;48.112;9.282;2022-10-16T03:51:15;5.60;;;1.52;;
9854;SDS011;4966;48.112;9.282;2022-10-16T03:53:40;4.75;;;1.10;;
9854;SDS011;4966;48.112;9.282;2022-10-16T03:56:06;2.05;;;1.10;;
9854;SDS011;4966;48.112;9.282;2022-10-16T03:58:31;5.82;;;1.10;;
9854;SDS011;4966;48.112;9.282;2022-10-16T04:00:57;3.75;;;1.10;;
9854;SDS011;4966;48.112;9.282;2022-10-16T04:03:22;4.07;;;1.20;;
9854;SDS011;4966;48.112;9.282;2022-10-16T04:05:48;7.63;;;1.50;;
9854;SDS011;4966;48.112;9.282;2022-10-16T04:08:13;5.18;;;1.30;;
9854;SDS011;4966;48.112;9.282;2022-10-16T04:10:39;3.95;;;1.23;;
9854;SDS011;4966;48.112;9.282;2022-10-16T04:13:04;4.45;;;1.20;;
9854;SDS011;4966;48.112;9.282;2022-10-16T04:15:29;7.40;;;1.48;;
9854;SDS011;4966;48.112;9.282;2022-10-16T04:17:55;7.63;;;1.30;;
9854;SDS011;4966;48.112;9.282;2022-10-16T04:20:20;3.95;;;1.30;;
9854;SDS011;4966;48.112;9.282;2022-10-16T04:22:46;3.85;;;1.25;;
9854;SDS011;4966;48.112;9.282;2022-10-16T04:25:11;2.65;;;1.27;;
9854;SDS011;4966;48.112;9.282;2022-10-16T04:27:37;3.58;;;1.25;;
9854;SDS011;4966;48.112;9.282;2022-10-16T04:30:03;4.22;;;1.20;;
9854;SDS011;4966;48.112;9.282;2022-10-16T04:32:29;3.20;;;1.23;;
9854;SDS011;4966;48.112;9.282;2022-10-16T04:34:54;1.88;;;1.20;;
9854;SDS011;4966;48.112;9.282;2022-10-16T04:37:23;4.32;;;1.20;;
9854;SDS011;4966;48.112;9.282;2022-10-16T04:39:49;4.95;;;1.27;;
9854;SDS011;4966;48.112;9.282;2022-10-16T04:42:14;1.95;;;0.90;;
9854;SDS011;4966;48.112;9.282;2022-10-16T04:44:39;3.15;;;1.20;;
9854;SDS011;4966;48.112;9.282;2022-10-16T04:47:05;2.40;;;1.00;;
9854;SDS011;4966;48.112;9.282;2022-10-16T04:49:30;4.40;;;0.95;;
9854;SDS011;4966;48.112;9.282;2022-10-16T04:51:55;3.90;;;1.20;;
9854;SDS011;4966;48.112;9.282;2022-10-16T04:54:21;7.70;;;1.20;;
9854;SDS011;4966;48.112;9.282;2022-10-16T04:56:46;3.65;;;1.38;;
9854;SDS011;4966;48.112;9.282;2022-10-16T04:59:13;6.20;;;1.15;;
9854;SDS011;4966;48.112;9.282;2022-10-16T05:01:40;6.90;;;1.90;;
9854;SDS011;4966;48.112;9.282;2022-10-16T05:04:05;4.88;;;1.50;;
9854;SDS011;4966;48.112;9.282;2022-10-16T05:06:30;3.53;;;1.40;;
9854;SDS011;4966;48.112;9.282;2022-10-16T05:08:56;3.47;;;1.60;;
9854;SDS011;4966;48.112;9.282;2022-10-16T05:11:21;5.20;;;1.50;;
9854;SDS011;4966;48.112;9.282;2022-10-16T05:13:46;2.38;;;1.10;;
9854;SDS011;4966;48.112;9.282;2022-10-16T05:16:12;2.20;;;1.10;;
9854;SDS011;4966;48.112;9.282;2022-10-16T05:18:37;3.50;;;1.23;;
9854;SDS011;4966;48.112;9.282;2022-10-16T05:21:03;2.97;;;1.33;;
9854;SDS011;4966;48.112;9.282;2022-10-16T05:23:28;3.80;;;1.20;;
9854;SDS011;4966;48.112;9.282;2022-10-16T05:25:54;3.15;;;1.10;;
9854;SDS011;4966;48.112;9.282;2022-10-16T05:28:23;2.17;;;0.95;;
9854;SDS011;4966;48.112;9.282;2022-10-16T05:30:51;8.13;;;1.50;;
9854;SDS011;4966;48.112;9.282;2022-10-16T05:33:19;2.47;;;1.30;;
9854;SDS011;4966;48.112;9.282;2022-10-16T05:35:45;2.33;;;1.20;;
9854;SDS011;4966;48.112;9.282;2022-10-16T05:38:11;8.38;;;1.58;;
9854;SDS011;4966;48.112;9.282;2022-10-16T05:40:36;8.00;;;1.40;;
9854;SDS011;4966;48.112;9.282;2022-10-16T05:43:02;5.25;;;1.30;;
9854;SDS011;4966;48.112;9.282;2022-10-16T05:45:27;10.45;;;1.63;;
9854;SDS011;4966;48.112;9.282;2022-10-16T05:47:53;9.30;;;3.63;;
9854;SDS011;4966;48.112;9.282;2022-10-16T05:50:18;4.90;;;1.48;;
9854;SDS011;4966;48.112;9.282;2022-10-16T05:52:43;3.25;;;1.75;;
9854;SDS011;4966;48.112;9.282;2022-10-16T05:55:09;4.60;;;1.20;;
9854;SDS011;4966;48.112;9.282;2022-10-16T05:57:34;4.05;;;1.90;;
9854;SDS011;4966;48.112;9.282;2022-10-16T05:59:59;2.78;;;1.80;;
9854;SDS011;4966;48.112;9.282;2022-10-16T06:02:25;6.18;;;1.67;;
9854;SDS011;4966;48.112;9.282;2022-10-16T06:04:53;5.75;;;1.92;;
9854;SDS011;4966;48.112;9.282;2022-10-16T06:07:19;4.95;;;2.28;;
9854;SDS011;4966;48.112;9.282;2022-10-16T06:09:47;2.95;;;1.48;;
9854;SDS011;4966;48.112;9.282;2022-10-16T06:12:16;2.92;;;1.38;;
9854;SDS011;4966;48.112;9.282;2022-10-16T06:14:42;4.30;;;1.45;;
9854;SDS011;4966;48.112;9.282;2022-10-16T06:17:07;5.43;;;1.27;;
9854;SDS011;4966;48.112;9.282;2022-10-16T06:19:33;3.58;;;1.20;;
9854;SDS011;4966;48.112;9.282;2022-10-16T06:21:58;3.78;;;1.30;;
9854;SDS011;4966;48.112;9.282;2022-10-16T06:24:24;4.97;;;1.50;;
9854;SDS011;4966;48.112;9.282;2022-10-16T06:26:50;2.05;;;1.10;;
9854;SDS011;4966;48.112;9.282;2022-10-16T06:29:15;3.10;;;1.40;;
9854;SDS011;4966;48.112;9.282;2022-10-16T06:31:41;2.97;;;1.15;;
9854;SDS011;4966;48.112;9.282;2022-10-16T06:34:08;5.60;;;1.20;;
9854;SDS011;4966;48.112;9.282;2022-10-16T06:36:35;6.18;;;1.10;;
9854;SDS011;4966;48.112;9.282;2022-10-16T06:39:01;3.38;;;1.27;;
9854;SDS011;4966;48.112;9.282;2022-10-16T06:41:26;3.92;;;1.20;;
9854;SDS011;4966;48.112;9.282;2022-10-16T06:43:51;5.07;;;2.92;;
9854;SDS011;4966;48.112;9.282;2022-10-16T06:46:19;10.70;;;2.97;;
9854;SDS011;4966;48.112;9.282;2022-10-16T06:48:46;2.67;;;1.40;;
9854;SDS011;4966;48.112;9.282;2022-10-16T06:51:13;4.57;;;2.08;;
9854;SDS011;4966;48.112;9.282;2022-10-16T06:53:41;5.80;;;2.35;;
9854;SDS011;4966;48.112;9.282;2022-10-16T06:58:38;4.95;;;1.70;;
9854;SDS011;4966;48.112;9.282;2022-10-16T07:01:04;3.40;;;1.70;;
9854;SDS011;4966;48.112;9.282;2022-10-16T07:03:29;5.85;;;1.95;;
9854;SDS011;4966;48.112;9.282;2022-10-16T07:05:55;3.85;;;1.88;;
9854;SDS011;4966;48.112;9.282;2022-10-16T07:08:21;12.18;;;4.10;;
9854;SDS011;4966;48.112;9.282;2022-10-16T07:10:47;16.48;;;5.82;;
9854;SDS011;4966;48.112;9.282;2022-10-16T07:13:12;13.90;;;6.25;;
9854;SDS011;4966;48.112;9.282;2022-10-16T07:15:39;14.75;;;6.45;;
9854;SDS011;4966;48.112;9.282;2022-10-16T07:18:05;7.78;;;4.30;;
9854;SDS011;4966;48.112;9.282;2022-10-16T07:20:30;13.00;;;5.28;;
9854;SDS011;4966;48.112;9.282;2022-10-16T07:22:56;13.57;;;5.95;;
9854;SDS011;4966;48.112;9.282;2022-10-16T07:25:21;9.45;;;4.78;;
9854;SDS011;4966;48.112;9.282;2022-10-16T07:27:46;12.32;;;5.43;;
9854;SDS011;4966;48.112;9.282;2022-10-16T07:30:12;16.20;;;5.95;;
9854;SDS011;4966;48.112;9.282;2022-10-16T07:32:37;13.10;;;5.47;;
9854;SDS011;4966;48.112;9.282;2022-10-16T07:35:03;12.85;;;4.65;;
9854;SDS011;4966;48.112;9.282;2022-10-16T07:37:29;9.63;;;4.40;;
9854;SDS011;4966;48.112;9.282;2022-10-16T07:39:54;10.43;;;3.92;;
9854;SDS011;4966;48.112;9.282;2022-10-16T07:42:20;7.38;;;2.72;;
9854;SDS011;4966;48.112;9.282;2022-10-16T07:44:45;9.00;;;2.97;;
9854;SDS011;4966;48.112;9.282;2022-10-16T07:47:11;5.38;;;2.45;;
9854;SDS011;4966;48.112;9.282;2022-10-16T07:49:36;7.07;;;2.50;;
9854;SDS011;4966;48.112;9.282;2022-10-16T07:52:02;9.48;;;6.93;;
9854;SDS011;4966;48.112;9.282;2022-10-16T07:54:27;19.20;;;12.38;;
9854;SDS011;4966;48.112;9.282;2022-10-16T07:56:53;9.05;;;5.15;;
9854;SDS011;4966;48.112;9.282;2022-10-16T07:59:18;13.18;;;3.55;;
9854;SDS011;4966;48.112;9.282;2022-10-16T08:01:43;14.48;;;7.32;;
9854;SDS011;4966;48.112;9.282;2022-10-16T08:04:09;8.82;;;5.05;;
9854;SDS011;4966;48.112;9.282;2022-10-16T08:06:36;11.93;;;5.93;;
9854;SDS011;4966;48.112;9.282;2022-10-16T08:09:02;7.60;;;4.07;;
9854;SDS011;4966;48.112;9.282;2022-10-16T08:11:29;7.47;;;3.88;;
9854;SDS011;4966;48.112;9.282;2022-10-16T08:13:54;7.68;;;3.90;;
9854;SDS011;4966;48.112;9.282;2022-10-16T08:16:20;7.90;;;3.90;;
9854;SDS011;4966;48.112;9.282;2022-10-16T08:18:46;6.45;;;3.95;;
9854;SDS011;4966;48.112;9.282;2022-10-16T08:21:13;7.05;;;3.70;;
9854;SDS011;4966;48.112;9.282;2022-10-16T08:23:40;8.75;;;4.30;;
9854;SDS011;4966;48.112;9.282;2022-10-16T08:26:06;7.05;;;3.97;;
9854;SDS011;4966;48.112;9.282;2022-10-16T08:28:33;11.07;;;3.55;;
9854;SDS011;4966;48.112;9.282;2022-10-16T08:31:10;7.22;;;3.50;;
9854;SDS011;4966;48.112;9.282;2022-10-16T08:33:40;6.22;;;3.55;;
9854;SDS011;4966;48.112;9.282;2022-10-16T08:36:06;8.98;;;3.25;;
9854;SDS011;4966;48.112;9.282;2022-10-16T08:38:32;6.47;;;3.30;;
9854;SDS011;4966;48.112;9.282;2022-10-16T08:47:02;6.75;;;3.88;;
9854;SDS011;4966;48.112;9.282;2022-10-16T08:49:29;15.88;;;4.60;;
9854;SDS011;4966;48.112;9.282;2022-10-16T08:51:55;8.40;;;4.53;;
9854;SDS011;4966;48.112;9.282;2022-10-16T08:54:29;7.65;;;3.90;;
9854;SDS011;4966;48.112;9.282;2022-10-16T08:57:09;15.05;;;3.70;;
9854;SDS011;4966;48.112;9.282;2022-10-16T08:59:41;6.93;;;3.20;;
9854;SDS011;4966;48.112;9.282;2022-10-16T09:02:40;4.90;;;3.10;;
9854;SDS011;4966;48.112;9.282;2022-10-16T09:10:56;8.27;;;3.08;;
9854;SDS011;4966;48.112;9.282;2022-10-16T09:16:27;4.38;;;2.50;;
9854;SDS011;4966;48.112;9.282;2022-10-16T09:18:58;3.65;;;2.28;;
9854;SDS011;4966;48.112;9.282;2022-10-16T09:21:31;4.90;;;2.67;;
9854;SDS011;4966;48.112;9.282;2022-10-16T09:24:07;5.40;;;2.40;;
9854;SDS011;4966;48.112;9.282;2022-10-16T09:26:38;6.13;;;2.22;;
9854;SDS011;4966;48.112;9.282;2022-10-16T09:29:03;3.17;;;2.20;;
9854;SDS011;4966;48.112;9.282;2022-10-16T09:31:29;5.43;;;2.65;;
9854;SDS011;4966;48.112;9.282;2022-10-16T09:34:03;4.90;;;2.72;;
9854;SDS011;4966;48.112;9.282;2022-10-16T09:36:32;4.70;;;2.55;;
9854;SDS011;4966;48.112;9.282;2022-10-16T09:39:05;73.95;;;30.73;;
9854;SDS011;4966;48.112;9.282;2022-10-16T09:41:33;258.95;;;92.97;;
9854;SDS011;4966;48.112;9.282;2022-10-16T09:44:01;271.92;;;93.35;;
9854;SDS011;4966;48.112;9.282;2022-10-16T09:46:29;75.55;;;25.83;;
9854;SDS011;4966;48.112;9.282;2022-10-16T09:48:59;10.38;;;3.70;;
9854;SDS011;4966;48.112;9.282;2022-10-16T09:51:27;16.83;;;7.15;;
9854;SDS011;4966;48.112;9.282;2022-10-16T09:54:02;27.23;;;12.05;;
9854;SDS011;4966;48.112;9.282;2022-10-16T09:56:39;6.28;;;2.28;;
9854;SDS011;4966;48.112;9.282;2022-10-16T09:59:12;8.20;;;2.35;;
9854;SDS011;4966;48.112;9.282;2022-10-16T10:01:40;68.00;;;32.42;;
9854;SDS011;4966;48.112;9.282;2022-10-16T10:06:37;53.78;;;23.83;;
9854;SDS011;4966;48.112;9.282;2022-10-16T10:17:06;15.55;;;7.82;;
9854;SDS011;4966;48.112;9.282;2022-10-16T10:19:44;7.35;;;4.00;;
9854;SDS011;4966;48.112;9.282;2022-10-16T10:24:55;5.88;;;3.15;;
9854;SDS011;4966;48.112;9.282;2022-10-16T10:27:20;8.32;;;1.95;;
9854;SDS011;4966;48.112;9.282;2022-10-16T10:30:05;3.45;;;1.55;;
9854;SDS011;4966;48.112;9.282;2022-10-16T10:32:54;6.22;;;1.90;;
9854;SDS011;4966;48.112;9.282;2022-10-16T10:35:31;7.10;;;2.50;;
9854;SDS011;4966;48.112;9.282;2022-10-16T10:46:03;3.40;;;1.40;;
9854;SDS011;4966;48.112;9.282;2022-10-16T10:51:46;3.40;;;1.63;;
9854;SDS011;4966;48.112;9.282;2022-10-16T10:54:30;2.00;;;0.90;;
9854;SDS011;4966;48.112;9.282;2022-10-16T11:05:14;2.97;;;1.08;;
9854;SDS011;4966;48.112;9.282;2022-10-16T11:10:20;4.03;;;0.88;;
9854;SDS011;4966;48.112;9.282;2022-10-16T11:13:04;6.20;;;0.95;;
9854;SDS011;4966;48.112;9.282;2022-10-16T11:15:44;4.13;;;0.98;;
9854;SDS011;4966;48.112;9.282;2022-10-16T11:20:56;2.00;;;0.82;;
9854;SDS011;4966;48.112;9.282;2022-10-16T11:23:28;1.80;;;1.00;;
9854;SDS011;4966;48.112;9.282;2022-10-16T11:25:59;2.38;;;0.75;;
9854;SDS011;4966;48.112;9.282;2022-10-16T11:28:34;1.30;;;0.70;;
9854;SDS011;4966;48.112;9.282;2022-10-16T11:31:13;3.03;;;0.80;;
9854;SDS011;4966;48.112;9.282;2022-10-16T11:33:46;2.58;;;0.90;;
9854;SDS011;4966;48.112;9.282;2022-10-16T11:36:35;2.28;;;0.65;;
9854;SDS011;4966;48.112;9.282;2022-10-16T11:39:20;1.52;;;0.80;;
9854;SDS011;4966;48.112;9.282;2022-10-16T11:41:50;4.75;;;0.82;;
9854;SDS011;4966;48.112;9.282;2022-10-16T11:47:03;6.80;;;0.95;;
9854;SDS011;4966;48.112;9.282;2022-10-16T11:49:37;3.63;;;1.45;;
9854;SDS011;4966;48.112;9.282;2022-10-16T11:52:20;2.45;;;0.95;;
9854;SDS011;4966;48.112;9.282;2022-10-16T11:57:36;2.35;;;0.80;;
9854;SDS011;4966;48.112;9.282;2022-10-16T12:00:14;2.75;;;0.70;;
9854;SDS011;4966;48.112;9.282;2022-10-16T12:02:52;1.70;;;0.75;;
9854;SDS011;4966;48.112;9.282;2022-10-16T12:08:06;2.30;;;0.80;;
9854;SDS011;4966;48.112;9.282;2022-10-16T12:10:38;1.65;;;0.80;;
9854;SDS011;4966;48.112;9.282;2022-10-16T12:13:04;3.10;;;0.90;;
9854;SDS011;4966;48.112;9.282;2022-10-16T12:15:50;2.00;;;0.70;;
9854;SDS011;4966;48.112;9.282;2022-10-16T12:18:22;1.88;;;0.85;;
9854;SDS011;4966;48.112;9.282;2022-10-16T12:20:56;1.73;;;0.68;;
9854;SDS011;4966;48.112;9.282;2022-10-16T12:25:57;1.55;;;0.80;;
9854;SDS011;4966;48.112;9.282;2022-10-16T12:28:28;2.10;;;0.70;;
9854;SDS011;4966;48.112;9.282;2022-10-16T12:31:00;1.80;;;0.90;;
9854;SDS011;4966;48.112;9.282;2022-10-16T12:33:35;4.25;;;0.70;;
9854;SDS011;4966;48.112;9.282;2022-10-16T12:36:26;4.25;;;0.68;;
9854;SDS011;4966;48.112;9.282;2022-10-16T12:38:54;1.10;;;0.60;;
9854;SDS011;4966;48.112;9.282;2022-10-16T12:41:37;6.43;;;0.80;;
9854;SDS011;4966;48.112;9.282;2022-10-16T12:44:05;2.10;;;0.60;;
9854;SDS011;4966;48.112;9.282;2022-10-16T12:46:46;1.38;;;0.70;;
9854;SDS011;4966;48.112;9.282;2022-10-16T12:51:37;3.15;;;0.80;;
9854;SDS011;4966;48.112;9.282;2022-10-16T13:10:21;2.55;;;0.70;;
9854;SDS011;4966;48.112;9.282;2022-10-16T13:15:51;2.50;;;0.57;;
9854;SDS011;4966;48.112;9.282;2022-10-16T13:18:38;1.33;;;0.70;;
9854;SDS011;4966;48.112;9.282;2022-10-16T13:23:56;2.05;;;0.70;;
9854;SDS011;4966;48.112;9.282;2022-10-16T13:29:22;1.92;;;0.70;;
9854;SDS011;4966;48.112;9.282;2022-10-16T13:31:48;5.22;;;0.77;;
9854;SDS011;4966;48.112;9.282;2022-10-16T13:34:15;1.65;;;0.60;;
9854;SDS011;4966;48.112;9.282;2022-10-16T13:36:45;3.75;;;0.73;;
9854;SDS011;4966;48.112;9.282;2022-10-16T13:39:19;2.50;;;0.80;;
9854;SDS011;4966;48.112;9.282;2022-10-16T13:46:59;1.20;;;0.75;;
9854;SDS011;4966;48.112;9.282;2022-10-16T13:49:26;1.80;;;0.68;;
9854;SDS011;4966;48.112;9.282;2022-10-16T13:51:55;2.47;;;0.75;;
9854;SDS011;4966;48.112;9.282;2022-10-16T13:54:21;1.52;;;0.70;;
9854;SDS011;4966;48.112;9.282;2022-10-16T13:56:47;1.58;;;0.68;;
9854;SDS011;4966;48.112;9.282;2022-10-16T14:02:05;4.07;;;0.90;;
9854;SDS011;4966;48.112;9.282;2022-10-16T14:04:50;1.05;;;0.63;;
9854;SDS011;4966;48.112;9.282;2022-10-16T14:07:25;4.32;;;0.80;;
9854;SDS011;4966;48.112;9.282;2022-10-16T14:09:53;1.75;;;0.60;;
9854;SDS011;4966;48.112;9.282;2022-10-16T14:12:19;2.38;;;0.80;;
9854;SDS011;4966;48.112;9.282;2022-10-16T14:14:46;1.48;;;0.77;;
9854;SDS011;4966;48.112;9.282;2022-10-16T14:17:14;8.07;;;0.85;;
9854;SDS011;4966;48.112;9.282;2022-10-16T14:19:51;4.25;;;0.80;;
9854;SDS011;4966;48.112;9.282;2022-10-16T14:22:24;1.50;;;0.60;;
9854;SDS011;4966;48.112;9.282;2022-10-16T14:30:29;1.88;;;0.80;;
9854;SDS011;4966;48.112;9.282;2022-10-16T14:32:57;7.63;;;1.20;;
9854;SDS011;4966;48.112;9.282;2022-10-16T14:37:55;4.60;;;0.73;;
9854;SDS011;4966;48.112;9.282;2022-10-16T14:40:23;2.65;;;0.80;;
9854;SDS011;4966;48.112;9.282;2022-10-16T14:42:51;4.93;;;0.70;;
9854;SDS011;4966;48.112;9.282;2022-10-16T14:45:21;2.33;;;0.70;;
9854;SDS011;4966;48.112;9.282;2022-10-16T14:47:55;3.38;;;0.70;;
9854;SDS011;4966;48.112;9.282;2022-10-16T14:50:22;3.92;;;0.93;;
9854;SDS011;4966;48.112;9.282;2022-10-16T14:52:48;2.25;;;0.90;;
9854;SDS011;4966;48.112;9.282;2022-10-16T14:55:14;8.15;;;1.23;;
9854;SDS011;4966;48.112;9.282;2022-10-16T14:57:40;6.93;;;1.10;;
9854;SDS011;4966;48.112;9.282;2022-10-16T15:00:23;7.18;;;0.85;;
9854;SDS011;4966;48.112;9.282;2022-10-16T15:02:49;1.27;;;0.70;;
9854;SDS011;4966;48.112;9.282;2022-10-16T15:05:25;3.72;;;1.00;;
9854;SDS011;4966;48.112;9.282;2022-10-16T15:07:52;6.78;;;0.95;;
9854;SDS011;4966;48.112;9.282;2022-10-16T15:10:21;7.38;;;1.20;;
9854;SDS011;4966;48.112;9.282;2022-10-16T15:12:48;2.65;;;1.02;;
9854;SDS011;4966;48.112;9.282;2022-10-16T15:17:54;7.35;;;1.02;;
9854;SDS011;4966;48.112;9.282;2022-10-16T15:20:25;3.17;;;0.95;;
9854;SDS011;4966;48.112;9.282;2022-10-16T15:23:14;2.90;;;1.13;;
9854;SDS011;4966;48.112;9.282;2022-10-16T15:28:07;8.43;;;1.17;;
9854;SDS011;4966;48.112;9.282;2022-10-16T15:30:33;2.80;;;0.90;;
9854;SDS011;4966;48.112;9.282;2022-10-16T15:33:00;6.70;;;2.00;;
9854;SDS011;4966;48.112;9.282;2022-10-16T15:35:26;4.97;;;1.02;;
9854;SDS011;4966;48.112;9.282;2022-10-16T15:37:52;5.30;;;1.00;;
9854;SDS011;4966;48.112;9.282;2022-10-16T15:40:17;5.78;;;1.00;;
9854;SDS011;4966;48.112;9.282;2022-10-16T15:42:44;1.70;;;0.70;;
9854;SDS011;4966;48.112;9.282;2022-10-16T15:45:10;6.10;;;0.85;;
9854;SDS011;4966;48.112;9.282;2022-10-16T15:47:36;9.98;;;1.10;;
9854;SDS011;4966;48.112;9.282;2022-10-16T15:50:02;8.32;;;0.95;;
9854;SDS011;4966;48.112;9.282;2022-10-16T15:52:28;6.03;;;0.80;;
9854;SDS011;4966;48.112;9.282;2022-10-16T15:54:56;9.82;;;1.02;;
9854;SDS011;4966;48.112;9.282;2022-10-16T15:57:22;6.68;;;0.93;;
9854;SDS011;4966;48.112;9.282;2022-10-16T15:59:48;6.63;;;1.00;;
9854;SDS011;4966;48.112;9.282;2022-10-16T16:02:14;7.45;;;0.90;;
9854;SDS011;4966;48.112;9.282;2022-10-16T16:04:39;2.60;;;0.88;;
9854;SDS011;4966;48.112;9.282;2022-10-16T16:07:05;5.32;;;0.90;;
9854;SDS011;4966;48.112;9.282;2022-10-16T16:09:32;2.85;;;1.00;;
9854;SDS011;4966;48.112;9.282;2022-10-16T16:11:58;3.13;;;0.82;;
9854;SDS011;4966;48.112;9.282;2022-10-16T16:14:26;8.63;;;2.17;;
9854;SDS011;4966;48.112;9.282;2022-10-16T16:16:53;8.30;;;1.17;;
9854;SDS011;4966;48.112;9.282;2022-10-16T16:19:20;3.22;;;0.80;;
9854;SDS011;4966;48.112;9.282;2022-10-16T16:21:46;6.43;;;1.00;;
9854;SDS011;4966;48.112;9.282;2022-10-16T16:24:12;8.02;;;1.00;;
9854;SDS011;4966;48.112;9.282;2022-10-16T16:26:37;4.20;;;1.02;;
9854;SDS011;4966;48.112;9.282;2022-10-16T16:29:05;8.95;;;1.05;;
9854;SDS011;4966;48.112;9.282;2022-10-16T16:31:31;3.22;;;0.98;;
9854;SDS011;4966;48.112;9.282;2022-10-16T16:33:57;4.70;;;0.82;;
9854;SDS011;4966;48.112;9.282;2022-10-16T16:36:24;5.82;;;1.10;;
9854;SDS011;4966;48.112;9.282;2022-10-16T16:38:50;4.85;;;1.10;;
9854;SDS011;4966;48.112;9.282;2022-10-16T16:41:16;5.78;;;0.80;;
9854;SDS011;4966;48.112;9.282;2022-10-16T16:43:44;3.53;;;1.08;;
9854;SDS011;4966;48.112;9.282;2022-10-16T16:46:10;4.53;;;1.05;;
9854;SDS011;4966;48.112;9.282;2022-10-16T16:48:36;5.47;;;1.00;;
9854;SDS011;4966;48.112;9.282;2022-10-16T16:51:03;5.43;;;1.00;;
9854;SDS011;4966;48.112;9.282;2022-10-16T16:53:33;6.75;;;1.25;;
9854;SDS011;4966;48.112;9.282;2022-10-16T16:56:03;5.50;;;0.90;;
9854;SDS011;4966;48.112;9.282;2022-10-16T16:58:30;6.13;;;1.58;;
9854;SDS011;4966;48.112;9.282;2022-10-16T17:00:56;4.05;;;1.02;;
9854;SDS011;4966;48.112;9.282;2022-10-16T17:03:26;7.28;;;1.40;;
9854;SDS011;4966;48.112;9.282;2022-10-16T17:05:58;1.63;;;1.20;;
9854;SDS011;4966;48.112;9.282;2022-10-16T17:08:26;10.85;;;6.38;;
9854;SDS011;4966;48.112;9.282;2022-10-16T17:10:52;3.55;;;2.63;;
9854;SDS011;4966;48.112;9.282;2022-10-16T17:13:20;14.68;;;4.60;;
9854;SDS011;4966;48.112;9.282;2022-10-16T17:15:47;10.32;;;4.55;;
9854;SDS011;4966;48.112;9.282;2022-10-16T17:18:13;41.20;;;17.17;;
9854;SDS011;4966;48.112;9.282;2022-10-16T17:20:39;11.90;;;5.43;;
9854;SDS011;4966;48.112;9.282;2022-10-16T17:23:05;8.07;;;4.13;;